Time;durP1;ratioP1;P1;durP2;ratioP2;P2;SDS_P1;SDS_P2;PMS_P1;PMS_P2;Temp;Humidity;BMP_temperature;BMP_pressure;BME280_temperature;BME280_humidity;BME280_pressure;Samples;Min_cycle;Max_cycle;Signal;HPM_P1;HPM_P2
2023/01/08 00:00:02;;;;;;;;;;;;;;;3.70;62.55;100380.88;3133609;28;20004;-68
2023/01/08 00:01:34;;;;;;;;;;;;;;;3.70;62.48;100377.44;3133134;28;20101;-67
2023/01/08 00:03:07;;;;;;;;;;;;;;;3.69;62.63;100375.72;3133391;28;19920;-68
2023/01/08 00:04:39;;;;;;;;;;;;;;;3.66;62.70;100376.59;3133238;28;19925;-68
2023/01/08 00:06:11;;;;;;;;;;;;;;;3.64;62.69;100375.78;3133505;28;19941;-68
2023/01/08 00:07:50;;;;;;;;;;;;;;;3.62;62.66;100372.34;3133608;28;19920;-68
2023/01/08 00:09:27;;;;;;;;;;;;;;;3.59;62.70;100370.66;3133469;28;19920;-68
2023/01/08 00:11:01;;;;;;;;;;;;;;;3.57;62.87;100379.25;3133246;28;20479;-68
2023/01/08 00:12:33;;;;;;;;;;;;;;;3.56;62.90;100378.41;3133343;28;19921;-68
2023/01/08 00:14:11;;;;;;;;;;;;;;;3.53;63.00;100375.84;3133221;28;20254;-68
2023/01/08 00:15:47;;;;;;;;;;;;;;;3.51;63.15;100376.72;3133189;28;20015;-68
2023/01/08 00:17:19;;;;;;;;;;;;;;;3.49;63.01;100376.75;3133189;28;20294;-70
2023/01/08 00:18:52;;;;;;;;;;;;;;;3.46;63.26;100375.91;3133344;28;20318;-68
2023/01/08 00:20:24;;;;;;;;;;;;;;;3.44;63.19;100373.34;3133256;28;19936;-68
2023/01/08 00:21:56;;;;;;;;;;;;;;;3.43;63.23;100379.34;3133029;28;19921;-68
2023/01/08 00:23:31;;;;;;;;;;;;;;;3.41;63.35;100378.50;3133281;28;19925;-69
2023/01/08 00:25:04;;;;;;;;;;;;;;;3.39;63.47;100378.50;3131417;28;19921;-69
2023/01/08 00:26:38;;;;;;;;;;;;;;;3.38;63.64;100376.81;3132034;28;19971;-69
2023/01/08 00:28:10;;;;;;;;;;;;;;;3.39;63.60;100375.09;3133414;28;19931;-69
2023/01/08 00:29:42;;;;;;;;;;;;;;;3.40;63.47;100371.63;3133340;28;19927;-69
2023/01/08 00:31:19;;;;;;;;;;;;;;;3.39;63.60;100378.50;3133472;28;20019;-68
2023/01/08 00:32:50;;;;;;;;;;;;;;;3.36;63.42;100370.81;3132862;28;20375;-68
2023/01/08 00:34:22;;;;;;;;;;;;;;;3.35;63.67;100374.25;3133025;28;19931;-69
2023/01/08 00:35:54;;;;;;;;;;;;;;;3.33;63.67;100381.13;3132540;28;19925;-69
2023/01/08 00:37:27;;;;;;;;;;;;;;;3.32;63.67;100383.72;3133252;28;19920;-69
2023/01/08 00:39:00;;;;;;;;;;;;;;;3.31;63.50;100375.16;3133119;28;19978;-69
2023/01/08 00:40:32;;;;;;;;;;;;;;;3.31;63.69;100379.44;3132989;28;19928;-69
2023/01/08 00:42:06;;;;;;;;;;;;;;;3.31;63.62;100379.44;3128712;28;20015;-69
2023/01/08 00:43:40;;;;;;;;;;;;;;;3.31;63.68;100372.59;3133039;28;20316;-69
2023/01/08 00:45:12;;;;;;;;;;;;;;;3.30;63.78;100376.00;3132717;28;19920;-69
2023/01/08 00:46:44;;;;;;;;;;;;;;;3.31;63.98;100376.84;3132991;28;19921;-69
2023/01/08 00:48:16;;;;;;;;;;;;;;;3.31;63.74;100379.44;3132860;28;19974;-69
2023/01/08 00:49:48;;;;;;;;;;;;;;;3.31;63.71;100375.16;3133074;28;20325;-69
2023/01/08 00:51:25;;;;;;;;;;;;;;;3.32;63.54;100371.72;3132595;28;19978;-69
2023/01/08 00:52:59;;;;;;;;;;;;;;;3.31;63.50;100382.88;3132254;28;19921;-69
2023/01/08 00:54:44;;;;;;;;;;;;;;;3.30;63.62;100377.72;3132738;28;19925;-69
2023/01/08 00:56:16;;;;;;;;;;;;;;;3.31;63.53;100380.31;3132131;28;19928;-69
2023/01/08 00:57:50;;;;;;;;;;;;;;;3.30;63.63;100381.16;3132772;28;19921;-69
2023/01/08 00:59:22;;;;;;;;;;;;;;;3.30;63.84;100383.72;3132878;28;19925;-69
2023/01/08 01:00:54;;;;;;;;;;;;;;;3.29;64.06;100383.75;3132686;28;20341;-69
2023/01/08 01:02:27;;;;;;;;;;;;;;;3.29;64.19;100378.59;3132887;28;19920;-68
2023/01/08 01:03:59;;;;;;;;;;;;;;;3.28;64.25;100382.00;3132722;28;19924;-69
2023/01/08 01:05:31;;;;;;;;;;;;;;;3.27;64.40;100388.03;3132945;28;19928;-69
2023/01/08 01:07:04;;;;;;;;;;;;;;;3.26;64.62;100376.03;3132497;28;19927;-69
2023/01/08 01:08:36;;;;;;;;;;;;;;;3.26;64.68;100383.75;3132972;28;19963;-69
2023/01/08 01:10:08;;;;;;;;;;;;;;;3.24;64.74;100376.03;3132577;28;19920;-69
2023/01/08 01:11:40;;;;;;;;;;;;;;;3.24;64.73;100381.19;3132645;28;19943;-69
2023/01/08 01:13:14;;;;;;;;;;;;;;;3.24;64.58;100368.31;3132838;28;20397;-69
2023/01/08 01:14:46;;;;;;;;;;;;;;;3.25;64.51;100364.88;3132862;28;19947;-69
2023/01/08 01:16:18;;;;;;;;;;;;;;;3.25;64.46;100370.00;3132778;28;19921;-68
2023/01/08 01:17:50;;;;;;;;;;;;;;;3.26;64.62;100373.47;3132928;28;19921;-69
2023/01/08 01:19:22;;;;;;;;;;;;;;;3.23;64.62;100366.63;3132886;28;19982;-68
2023/01/08 01:20:54;;;;;;;;;;;;;;;3.21;64.73;100363.19;3132508;28;19974;-67
2023/01/08 01:22:29;;;;;;;;;;;;;;;3.21;64.58;100365.75;3132671;28;19924;-68
2023/01/08 01:24:02;;;;;;;;;;;;;;;3.18;64.73;100358.06;3132714;28;19924;-68
2023/01/08 01:25:37;;;;;;;;;;;;;;;3.18;64.93;100358.06;3132046;28;20314;-68
2023/01/08 01:27:10;;;;;;;;;;;;;;;3.18;65.05;100360.63;3132409;28;19944;-69
2023/01/08 01:28:43;;;;;;;;;;;;;;;3.16;65.14;100360.63;3132631;28;19931;-69
2023/01/08 01:30:15;;;;;;;;;;;;;;;3.15;65.08;100356.34;3132335;28;19931;-69
2023/01/08 01:31:48;;;;;;;;;;;;;;;3.16;65.25;100360.63;3132831;28;20023;-69
2023/01/08 01:33:19;;;;;;;;;;;;;;;3.16;65.09;100355.47;3132607;28;19925;-69
2023/01/08 01:34:50;;;;;;;;;;;;;;;3.18;65.22;100358.91;3132444;28;19929;-69
2023/01/08 01:36:23;;;;;;;;;;;;;;;3.19;65.17;100352.03;3132668;28;19928;-69
2023/01/08 01:37:57;;;;;;;;;;;;;;;3.21;64.98;100358.03;3132596;28;19927;-69
2023/01/08 01:39:29;;;;;;;;;;;;;;;3.20;65.06;100351.19;3132217;28;19979;-69
2023/01/08 01:41:01;;;;;;;;;;;;;;;3.21;64.99;100352.91;3132669;28;20011;-69
2023/01/08 01:42:43;;;;;;;;;;;;;;;3.20;64.92;100353.78;3132456;28;19959;-70
2023/01/08 01:44:33;;;;;;;;;;;;;;;3.18;65.19;100355.50;3120556;28;20317;-69
2023/01/08 01:46:24;;;;;;;;;;;;;;;3.17;65.08;100353.78;3121521;28;19968;-69
2023/01/08 01:48:01;;;;;;;;;;;;;;;3.16;65.14;100340.03;3132229;28;19986;-69
2023/01/08 01:49:33;;;;;;;;;;;;;;;3.17;64.94;100346.06;3132656;28;20024;-69
2023/01/08 01:51:08;;;;;;;;;;;;;;;3.16;64.92;100345.19;3132266;28;19931;-70
2023/01/08 01:52:42;;;;;;;;;;;;;;;3.16;64.89;100352.06;3132242;28;20380;-69
2023/01/08 01:54:21;;;;;;;;;;;;;;;3.15;64.84;100348.63;3132765;28;20019;-69
2023/01/08 01:55:53;;;;;;;;;;;;;;;3.16;64.89;100346.91;3132722;28;19921;-70
2023/01/08 01:57:25;;;;;;;;;;;;;;;3.14;64.76;100344.38;3132510;28;19921;-70
2023/01/08 01:58:57;;;;;;;;;;;;;;;3.13;64.87;100344.34;3132385;28;19921;-70
2023/01/08 02:00:29;;;;;;;;;;;;;;;3.11;65.04;100343.53;3132438;28;19921;-69
2023/01/08 02:02:04;;;;;;;;;;;;;;;3.11;64.97;100348.69;3132601;28;19925;-69
2023/01/08 02:03:39;;;;;;;;;;;;;;;3.10;64.98;100341.81;3132510;28;19932;-69
2023/01/08 02:05:11;;;;;;;;;;;;;;;3.10;64.82;100341.81;3132464;28;19939;-70
2023/01/08 02:06:47;;;;;;;;;;;;;;;3.10;64.81;100345.22;3132801;28;19925;-69
2023/01/08 02:08:22;;;;;;;;;;;;;;;3.09;64.78;100340.09;3132438;28;19920;-70
2023/01/08 02:09:56;;;;;;;;;;;;;;;3.08;64.84;100341.84;3131476;28;19920;-69
2023/01/08 02:11:33;;;;;;;;;;;;;;;3.06;64.96;100340.13;3134894;28;20177;-69
2023/01/08 02:13:09;;;;;;;;;;;;;;;3.04;65.19;100337.53;3134975;28;20696;-69
2023/01/08 02:14:45;;;;;;;;;;;;;;;3.02;65.24;100339.28;3134587;28;19925;-69
2023/01/08 02:16:19;;;;;;;;;;;;;;;3.02;65.28;100329.00;3134498;28;19924;-69
2023/01/08 02:17:55;;;;;;;;;;;;;;;3.03;65.46;100335.00;3133002;28;20015;-69
2023/01/08 02:19:36;;;;;;;;;;;;;;;3.05;65.42;100343.56;3135003;28;20004;-69
2023/01/08 02:21:13;;;;;;;;;;;;;;;3.05;65.33;100339.28;3134405;28;19921;-69
2023/01/08 02:22:46;;;;;;;;;;;;;;;3.06;65.48;100337.56;3134416;28;19920;-69
2023/01/08 02:24:24;;;;;;;;;;;;;;;3.08;65.49;100335.84;3133492;28;19921;-69
2023/01/08 02:26:13;;;;;;;;;;;;;;;3.10;65.47;100341.81;3135037;28;19971;-70
2023/01/08 02:27:49;;;;;;;;;;;;;;;3.11;65.46;100334.09;3134712;28;20401;-69
2023/01/08 02:29:24;;;;;;;;;;;;;;;3.12;65.45;100340.94;3134923;28;19959;-69
2023/01/08 02:30:57;;;;;;;;;;;;;;;3.13;65.17;100332.34;3134662;28;19930;-69
2023/01/08 02:32:34;;;;;;;;;;;;;;;3.14;65.31;100336.66;3134348;28;20446;-69
2023/01/08 02:34:06;;;;;;;;;;;;;;;2.75;65.32;100275.97;3134851;28;20011;-69
2023/01/08 02:35:40;;;;;;;;;;;;;;;3.16;65.16;100342.63;3134463;28;19924;-70
2023/01/08 02:37:16;;;;;;;;;;;;;;;3.16;65.14;100341.75;3134265;28;19930;-69
2023/01/08 02:38:51;;;;;;;;;;;;;;;3.15;65.21;100340.91;3130963;28;19924;-69
2023/01/08 02:40:29;;;;;;;;;;;;;;;3.15;65.17;100337.50;3134545;28;19924;-70
2023/01/08 02:42:07;;;;;;;;;;;;;;;3.15;65.28;100335.78;3134467;28;19925;-70
2023/01/08 02:43:44;;;;;;;;;;;;;;;3.14;65.12;100341.78;3134257;28;20841;-70
2023/01/08 02:45:21;;;;;;;;;;;;;;;3.13;65.18;100339.22;3134371;28;19932;-70
2023/01/08 02:47:08;;;;;;;;;;;;;;;3.12;65.32;100332.38;3133428;28;19925;-70
2023/01/08 02:48:46;;;;;;;;;;;;;;;3.12;65.30;100328.06;3134350;28;19921;-70
2023/01/08 02:50:21;;;;;;;;;;;;;;;3.12;65.27;100334.94;3134451;28;20011;-70
2023/01/08 02:51:55;;;;;;;;;;;;;;;3.11;65.18;100328.94;3134151;28;19925;-70
2023/01/08 02:53:28;;;;;;;;;;;;;;;3.10;65.20;100339.22;3134059;28;20444;-70
2023/01/08 02:55:06;;;;;;;;;;;;;;;3.09;65.43;100340.97;3134182;28;19958;-70
2023/01/08 02:56:40;;;;;;;;;;;;;;;3.09;65.53;100340.09;3134241;28;19921;-70
2023/01/08 02:58:16;;;;;;;;;;;;;;;3.09;65.59;100333.22;3134206;28;19982;-69
2023/01/08 02:59:50;;;;;;;;;;;;;;;3.10;65.73;100339.22;3134211;28;19972;-69
2023/01/08 03:01:23;;;;;;;;;;;;;;;3.11;65.53;100341.81;3134320;28;19928;-69
2023/01/08 03:03:02;;;;;;;;;;;;;;;3.09;65.45;100332.38;3133956;28;20020;-69
2023/01/08 03:04:37;;;;;;;;;;;;;;;3.08;65.44;100328.13;3134215;28;19978;-69
2023/01/08 03:06:10;;;;;;;;;;;;;;;3.06;65.49;100333.25;3134285;28;20019;-69
2023/01/08 03:07:41;;;;;;;;;;;;;;;3.04;65.32;100326.41;3134174;28;20061;-69
2023/01/08 03:09:14;;;;;;;;;;;;;;;3.01;65.43;100331.56;3134366;28;20298;-69
2023/01/08 03:10:51;;;;;;;;;;;;;;;2.96;65.74;100331.63;3134125;28;19928;-69
2023/01/08 03:12:24;;;;;;;;;;;;;;;2.94;65.68;100330.75;3134199;28;19928;-69
2023/01/08 03:13:59;;;;;;;;;;;;;;;2.93;65.81;100335.06;3134333;28;20027;-70
2023/01/08 03:15:36;;;;;;;;;;;;;;;2.92;65.74;100332.47;3134065;28;19925;-69
2023/01/08 03:17:12;;;;;;;;;;;;;;;2.91;65.82;100336.78;3133981;28;19979;-70
2023/01/08 03:18:47;;;;;;;;;;;;;;;2.90;65.77;100335.06;3124445;28;20372;-69
2023/01/08 03:20:23;;;;;;;;;;;;;;;2.91;65.68;100341.91;3133843;28;20321;-70
2023/01/08 03:21:57;;;;;;;;;;;;;;;2.89;65.74;100335.91;3133045;28;20139;-70
2023/01/08 03:23:32;;;;;;;;;;;;;;;2.88;65.70;100339.34;3133859;28;19931;-69
2023/01/08 03:25:07;;;;;;;;;;;;;;;2.85;65.81;100336.81;3133896;28;19920;-70
2023/01/08 03:26:39;;;;;;;;;;;;;;;2.85;65.97;100341.09;3133894;28;20448;-70
2023/01/08 03:28:13;;;;;;;;;;;;;;;2.81;66.04;100329.97;3134010;28;20492;-69
2023/01/08 03:29:47;;;;;;;;;;;;;;;2.80;65.99;100333.38;3133954;28;19999;-69
2023/01/08 03:31:23;;;;;;;;;;;;;;;2.80;65.83;100328.25;3121617;28;19921;-69
2023/01/08 03:32:57;;;;;;;;;;;;;;;2.80;65.82;100333.38;3128645;28;19994;-69
2023/01/08 03:34:31;;;;;;;;;;;;;;;2.81;65.82;100335.13;3133517;28;19924;-69
2023/01/08 03:36:07;;;;;;;;;;;;;;;2.80;65.69;100335.97;3130149;28;20007;-69
2023/01/08 03:37:40;;;;;;;;;;;;;;;2.81;65.73;100329.97;3132787;28;19967;-69
2023/01/08 03:39:15;;;;;;;;;;;;;;;2.81;65.75;100331.66;3133833;28;19924;-70
2023/01/08 03:40:48;;;;;;;;;;;;;;;2.80;65.83;100328.25;3133601;28;19931;-69
2023/01/08 03:42:21;;;;;;;;;;;;;;;2.81;65.73;100334.25;3133823;28;19920;-69
2023/01/08 03:43:54;;;;;;;;;;;;;;;2.80;65.74;100325.69;3133749;28;19920;-69
2023/01/08 03:45:30;;;;;;;;;;;;;;;2.81;65.71;100323.94;3133687;28;20387;-69
2023/01/08 03:47:04;;;;;;;;;;;;;;;2.81;65.69;100324.84;3133796;28;19920;-69
2023/01/08 03:48:37;;;;;;;;;;;;;;;2.81;65.62;100324.84;3133597;28;20378;-69
2023/01/08 03:50:11;;;;;;;;;;;;;;;2.81;65.46;100319.69;3133744;28;19928;-69
2023/01/08 03:51:45;;;;;;;;;;;;;;;2.78;65.61;100322.28;3133392;28;19925;-69
2023/01/08 03:53:17;;;;;;;;;;;;;;;2.79;65.41;100330.84;3133657;28;20129;-70
2023/01/08 03:54:50;;;;;;;;;;;;;;;2.79;65.44;100329.13;3133380;28;19924;-69
2023/01/08 03:56:25;;;;;;;;;;;;;;;2.79;65.45;100325.69;3133611;28;20395;-69
2023/01/08 03:57:57;;;;;;;;;;;;;;;2.77;65.45;100323.13;3133655;28;20353;-70
2023/01/08 03:59:30;;;;;;;;;;;;;;;2.76;65.42;100328.28;3133585;28;20385;-70
2023/01/08 04:01:01;;;;;;;;;;;;;;;2.71;65.54;100318.84;3133154;28;19931;-70
2023/01/08 04:02:34;;;;;;;;;;;;;;;2.71;65.55;100320.59;3133039;28;20015;-70
2023/01/08 04:04:06;;;;;;;;;;;;;;;2.67;65.52;100327.47;3133356;28;19982;-70
2023/01/08 04:05:38;;;;;;;;;;;;;;;2.66;65.69;100330.03;3133359;28;19921;-69
2023/01/08 04:07:15;;;;;;;;;;;;;;;2.64;65.70;100336.91;3133419;28;19978;-69
2023/01/08 04:08:47;;;;;;;;;;;;;;;2.62;65.96;100328.34;3133390;28;20402;-70
2023/01/08 04:10:19;;;;;;;;;;;;;;;2.59;66.16;100331.78;3133487;28;19999;-68
2023/01/08 04:11:51;;;;;;;;;;;;;;;2.56;66.18;100336.09;3133345;28;20375;-68
2023/01/08 04:13:23;;;;;;;;;;;;;;;2.55;66.21;100340.38;3133475;28;19927;-68
2023/01/08 04:14:57;;;;;;;;;;;;;;;2.55;66.20;100336.94;3133110;28;19978;-68
2023/01/08 04:16:30;;;;;;;;;;;;;;;2.53;66.30;100333.53;3133043;28;20367;-68
2023/01/08 04:18:04;;;;;;;;;;;;;;;2.52;66.23;100339.53;3130743;28;20580;-69
2023/01/08 04:19:36;;;;;;;;;;;;;;;2.49;66.20;100338.69;3133026;28;19921;-69
2023/01/08 04:21:09;;;;;;;;;;;;;;;2.48;66.20;100336.97;3132456;28;19920;-68
2023/01/08 04:22:42;;;;;;;;;;;;;;;2.47;66.57;100342.97;3133087;28;19962;-69
2023/01/08 04:24:13;;;;;;;;;;;;;;;2.46;66.57;100335.28;3133226;28;19924;-69
2023/01/08 04:25:50;;;;;;;;;;;;;;;2.45;66.57;100343.81;3132988;28;20407;-69
2023/01/08 04:27:20;;;;;;;;;;;;;;;2.44;66.57;100337.84;3133323;28;20374;-69
2023/01/08 04:28:52;;;;;;;;;;;;;;;2.44;66.37;100342.13;3133346;28;19932;-69
2023/01/08 04:30:27;;;;;;;;;;;;;;;2.44;66.36;100342.97;3133193;28;19943;-71
2023/01/08 04:32:00;;;;;;;;;;;;;;;2.44;66.32;100349.84;3133027;28;19920;-68
2023/01/08 04:33:33;;;;;;;;;;;;;;;2.42;66.14;100352.41;3122712;28;19928;-69
2023/01/08 04:35:09;;;;;;;;;;;;;;;2.41;66.21;100350.69;3131774;28;20332;-69
2023/01/08 04:36:41;;;;;;;;;;;;;;;2.43;66.33;100353.28;3132837;28;19931;-69
2023/01/08 04:38:39;;;;;;;;;;;;;;;2.41;66.25;100355.84;3133196;28;19952;-70
2023/01/08 04:41:57;;;;;;;;;;;;;;;2.40;66.26;100354.13;3130471;28;19974;-70
2023/01/08 04:43:30;;;;;;;;;;;;;;;2.39;66.55;100349.84;3133019;28;19994;-70
2023/01/08 04:45:02;;;;;;;;;;;;;;;2.39;66.46;100347.25;3133074;28;19974;-68
2023/01/08 04:46:35;;;;;;;;;;;;;;;2.39;66.40;100357.53;3132901;28;19924;-69
2023/01/08 04:48:09;;;;;;;;;;;;;;;2.37;66.41;100349.00;3131937;28;20397;-68
2023/01/08 04:49:44;;;;;;;;;;;;;;;2.37;66.50;100353.28;3133026;28;19924;-69
2023/01/08 04:51:16;;;;;;;;;;;;;;;2.37;66.49;100361.00;3132988;28;19924;-69
2023/01/08 04:52:48;;;;;;;;;;;;;;;2.36;66.75;100356.72;3132711;28;19994;-68
2023/01/08 04:54:23;;;;;;;;;;;;;;;2.35;66.67;100363.56;3132895;28;20433;-69
2023/01/08 04:55:56;;;;;;;;;;;;;;;2.35;66.82;100360.16;3133099;28;19978;-70
2023/01/08 04:57:29;;;;;;;;;;;;;;;2.36;67.00;100364.41;3132963;28;19994;-69
2023/01/08 04:59:01;;;;;;;;;;;;;;;2.35;67.08;100365.28;3132643;28;19925;-69
2023/01/08 05:00:34;;;;;;;;;;;;;;;2.35;67.00;100366.13;3132745;28;20386;-69
2023/01/08 05:02:06;;;;;;;;;;;;;;;2.35;66.97;100358.44;3133069;28;19959;-69
2023/01/08 05:03:37;;;;;;;;;;;;;;;2.35;66.85;100366.13;3132192;28;19928;-69
2023/01/08 05:05:11;;;;;;;;;;;;;;;2.35;66.79;100363.56;3132698;28;19928;-69
2023/01/08 05:06:49;;;;;;;;;;;;;;;2.37;66.74;100366.16;3132627;28;19924;-69
2023/01/08 05:08:20;;;;;;;;;;;;;;;2.37;66.57;100366.16;3133039;28;19943;-69
2023/01/08 05:09:58;;;;;;;;;;;;;;;2.37;66.78;100369.56;3132546;28;19920;-70
2023/01/08 05:11:30;;;;;;;;;;;;;;;2.35;66.73;100358.44;3132812;28;20035;-70
2023/01/08 05:13:02;;;;;;;;;;;;;;;2.34;66.75;100359.28;3132589;28;19960;-69
2023/01/08 05:14:34;;;;;;;;;;;;;;;2.33;66.66;100367.84;3132522;28;20412;-70
2023/01/08 05:16:06;;;;;;;;;;;;;;;2.32;66.72;100368.72;3132745;28;19927;-69
2023/01/08 05:17:37;;;;;;;;;;;;;;;2.32;66.82;100370.44;3132618;28;19990;-69
2023/01/08 05:19:10;;;;;;;;;;;;;;;2.31;66.85;100372.16;3132514;28;19921;-69
2023/01/08 05:20:43;;;;;;;;;;;;;;;2.31;66.71;100374.72;3132778;28;19925;-69
2023/01/08 05:22:16;;;;;;;;;;;;;;;2.30;66.85;100367.84;3132694;28;19927;-68
2023/01/08 05:23:51;;;;;;;;;;;;;;;2.30;66.88;100375.56;3132414;28;19943;-69
2023/01/08 05:25:31;;;;;;;;;;;;;;;2.32;66.89;100376.44;3132821;28;20470;-69
2023/01/08 05:27:03;;;;;;;;;;;;;;;2.30;66.74;100375.56;3132279;28;19931;-69
2023/01/08 05:28:35;;;;;;;;;;;;;;;2.31;66.72;100371.28;3132436;28;20318;-69
2023/01/08 05:30:07;;;;;;;;;;;;;;;1.87;66.59;100302.88;3132571;28;19928;-69
2023/01/08 05:31:40;;;;;;;;;;;;;;;2.29;66.68;100379.00;3132887;28;19921;-70
2023/01/08 05:33:10;;;;;;;;;;;;;;;2.27;66.81;100378.13;3131884;28;19924;-69
2023/01/08 05:34:42;;;;;;;;;;;;;;;2.24;66.75;100381.56;3132626;28;20419;-70
2023/01/08 05:36:16;;;;;;;;;;;;;;;2.21;66.98;100383.28;3132174;28;19925;-70
2023/01/08 05:37:49;;;;;;;;;;;;;;;2.20;66.75;100386.72;3120070;28;19924;-69
2023/01/08 05:39:22;;;;;;;;;;;;;;;2.18;66.81;100373.88;3132716;28;19921;-70
2023/01/08 05:41:00;;;;;;;;;;;;;;;2.15;66.91;100384.16;3132917;28;19951;-69
2023/01/08 05:42:41;;;;;;;;;;;;;;;2.14;67.05;100381.59;3132715;28;19925;-69
2023/01/08 05:44:13;;;;;;;;;;;;;;;2.11;67.06;100379.03;3125226;28;19931;-69
2023/01/08 05:45:47;;;;;;;;;;;;;;;2.08;67.30;100379.06;3132893;28;20329;-69
2023/01/08 05:47:23;;;;;;;;;;;;;;;2.05;67.52;100379.91;3135017;28;20286;-70
2023/01/08 05:48:57;;;;;;;;;;;;;;;2.04;67.58;100380.75;3134915;28;20443;-69
2023/01/08 05:50:29;;;;;;;;;;;;;;;2.03;67.54;100385.03;3135090;28;19974;-69
2023/01/08 05:52:05;;;;;;;;;;;;;;;2.02;67.76;100385.91;3135226;28;19940;-69
2023/01/08 05:53:37;;;;;;;;;;;;;;;2.02;67.79;100385.03;3122759;28;20235;-70
2023/01/08 05:55:09;;;;;;;;;;;;;;;2.00;67.81;100379.91;3122638;28;20369;-69
2023/01/08 05:56:42;;;;;;;;;;;;;;;2.01;67.65;100386.75;3122472;28;20412;-70
2023/01/08 05:58:18;;;;;;;;;;;;;;;2.01;67.77;100384.19;3122539;28;19925;-69
2023/01/08 05:59:49;;;;;;;;;;;;;;;2.01;68.02;100384.19;3122683;28;19929;-70
2023/01/08 06:01:24;;;;;;;;;;;;;;;2.02;67.83;100388.47;3122677;28;19928;-70
2023/01/08 06:02:59;;;;;;;;;;;;;;;2.00;67.85;100387.59;3122405;28;19921;-69
2023/01/08 06:04:31;;;;;;;;;;;;;;;2.00;68.02;100392.75;3122614;28;19964;-70
2023/01/08 06:06:15;;;;;;;;;;;;;;;1.97;67.94;100385.03;3122484;28;20377;-69
2023/01/08 06:07:48;;;;;;;;;;;;;;;1.96;67.78;100385.06;3122732;28;19921;-71
2023/01/08 06:09:20;;;;;;;;;;;;;;;1.97;67.90;100394.47;3122643;28;20315;-70
2023/01/08 06:10:52;;;;;;;;;;;;;;;1.95;67.83;100389.34;3122495;28;19960;-70
2023/01/08 06:12:26;;;;;;;;;;;;;;;1.96;67.85;100388.47;3122559;28;19921;-70
2023/01/08 06:13:58;;;;;;;;;;;;;;;1.95;67.78;100391.91;3122026;28;19921;-71
2023/01/08 06:15:30;;;;;;;;;;;;;;;1.96;67.82;100391.03;3122467;28;20748;-66
2023/01/08 06:17:02;;;;;;;;;;;;;;;1.99;67.75;100388.47;3122278;28;19956;-68
2023/01/08 06:18:34;;;;;;;;;;;;;;;2.02;67.74;100390.19;3122345;28;20342;-70
2023/01/08 06:20:07;;;;;;;;;;;;;;;2.13;67.88;100395.28;3122556;28;19924;-71
2023/01/08 06:21:39;;;;;;;;;;;;;;;2.24;67.83;100389.28;3122516;28;19975;-71
2023/01/08 06:23:12;;;;;;;;;;;;;;;2.40;67.82;100389.28;3122620;28;20454;-73
2023/01/08 06:24:44;;;;;;;;;;;;;;;2.58;67.59;100391.78;3122264;28;19971;-71
2023/01/08 06:26:16;;;;;;;;;;;;;;;2.77;67.37;100391.72;3115274;28;19999;-71
2023/01/08 06:27:51;;;;;;;;;;;;;;;2.94;67.10;100392.50;3120102;28;19920;-70
2023/01/08 06:29:23;;;;;;;;;;;;;;;3.10;66.75;100394.13;3122268;28;19929;-73
2023/01/08 06:30:57;;;;;;;;;;;;;;;3.26;66.46;100389.75;3122159;28;19928;-71
2023/01/08 06:32:29;;;;;;;;;;;;;;;3.42;66.19;100391.38;3121878;28;19921;-72
2023/01/08 06:34:02;;;;;;;;;;;;;;;3.56;65.98;100403.31;3122291;28;19925;-70
2023/01/08 06:35:33;;;;;;;;;;;;;;;3.64;65.77;100401.53;3122264;28;19929;-71
2023/01/08 06:37:18;;;;;;;;;;;;;;;3.73;65.54;100398.91;3122050;28;20028;-69
2023/01/08 06:38:51;;;;;;;;;;;;;;;3.85;65.30;100400.53;3122173;28;19925;-69
2023/01/08 06:40:24;;;;;;;;;;;;;;;3.98;65.13;100406.41;3122123;28;19960;-69
2023/01/08 06:41:56;;;;;;;;;;;;;;;4.13;64.86;100401.13;3122193;28;19925;-68
2023/01/08 06:43:28;;;;;;;;;;;;;;;4.25;64.61;100410.47;3122398;28;19999;-68
2023/01/08 06:45:00;;;;;;;;;;;;;;;4.39;64.38;100408.59;3121915;28;20127;-70
2023/01/08 06:46:37;;;;;;;;;;;;;;;4.53;64.20;100411.06;3121770;28;19921;-70
2023/01/08 06:48:09;;;;;;;;;;;;;;;4.71;64.01;100418.59;3122507;28;19928;-70
2023/01/08 06:49:44;;;;;;;;;;;;;;;4.84;63.75;100416.72;3122032;28;19975;-70
2023/01/08 06:51:16;;;;;;;;;;;;;;;4.96;63.58;100419.13;3121909;28;20394;-71
2023/01/08 06:52:52;;;;;;;;;;;;;;;5.08;63.35;100425.88;3126673;28;20183;-72
2023/01/08 06:54:28;;;;;;;;;;;;;;;5.19;63.17;100428.31;3134164;28;19936;-69
2023/01/08 06:56:00;;;;;;;;;;;;;;;5.32;62.91;100421.25;3133261;28;19929;-74
2023/01/08 06:57:32;;;;;;;;;;;;;;;5.44;62.68;100427.13;3134551;28;19920;-70
2023/01/08 06:59:04;;;;;;;;;;;;;;;5.59;62.46;100428.63;3134127;28;20413;-71
2023/01/08 07:00:37;;;;;;;;;;;;;;;5.75;62.21;100426.66;3134124;28;19928;-71
2023/01/08 07:02:12;;;;;;;;;;;;;;;5.90;61.85;100421.25;3134085;28;19921;-72
2023/01/08 07:03:47;;;;;;;;;;;;;;;6.09;61.56;100427.03;3134118;28;20317;-70
2023/01/08 07:05:19;;;;;;;;;;;;;;;6.28;61.09;100419.78;3133746;28;20014;-74
2023/01/08 07:06:51;;;;;;;;;;;;;;;6.46;60.68;100425.53;3133593;28;19930;-69
2023/01/08 07:08:23;;;;;;;;;;;;;;;6.63;60.17;100418.31;3133844;28;19974;-72
2023/01/08 07:09:56;;;;;;;;;;;;;;;6.82;60.00;100424.81;3133729;28;19920;-75
2023/01/08 07:11:27;;;;;;;;;;;;;;;7.01;59.49;100424.44;3133917;28;19951;-74
2023/01/08 07:12:59;;;;;;;;;;;;;;;7.18;58.96;100421.50;3133765;28;19920;-74
2023/01/08 07:14:31;;;;;;;;;;;;;;;7.38;58.50;100416.75;3133626;28;19981;-75
2023/01/08 07:16:05;;;;;;;;;;;;;;;7.63;57.88;100421.34;3133749;28;19931;-75
2023/01/08 07:17:37;;;;;;;;;;;;;;;7.95;57.25;100424.03;3131625;28;20424;-71
2023/01/08 07:19:09;;;;;;;;;;;;;;;8.30;56.87;100430.09;3133774;28;19921;-72
2023/01/08 07:20:40;;;;;;;;;;;;;;;8.71;55.91;100429.94;3133562;28;19932;-70
2023/01/08 07:22:12;;;;;;;;;;;;;;;9.10;55.36;100433.13;3133633;28;19928;-73
2023/01/08 07:23:46;;;;;;;;;;;;;;;9.42;54.40;100426.16;3134181;28;19920;-76
2023/01/08 07:25:19;;;;;;;;;;;;;;;9.66;53.75;100433.19;3133855;28;19920;-75
2023/01/08 07:26:50;;;;;;;;;;;;;;;9.84;53.28;100436.09;3133825;28;19924;-73
2023/01/08 07:28:22;;;;;;;;;;;;;;;10.02;52.64;100435.50;3134643;28;19982;-77
2023/01/08 07:30:51;;;;;;;17.02;10.07;;;;;;;10.21;51.89;100430.56;3164854;27;20377;-70
2023/01/08 07:32:23;;;;;;;16.27;9.23;;;;;;;10.48;50.80;100437.44;3163536;28;20041;-70
2023/01/08 07:33:55;;;;;;;21.65;9.52;;;;;;;10.64;49.91;100413.47;3166165;28;20052;-75
2023/01/08 07:35:27;;;;;;;21.75;9.38;;;;;;;11.04;49.20;100431.13;3167328;28;20059;-73
2023/01/08 07:36:59;;;;;;;24.48;10.98;;;;;;;11.32;48.87;100419.66;3162836;28;20052;-71
2023/01/08 07:38:31;;;;;;;22.70;10.25;;;;;;;11.67;47.92;100438.31;3165047;28;20071;-73
2023/01/08 07:40:03;;;;;;;20.80;9.70;;;;;;;11.80;47.38;100414.28;3168346;28;20440;-69
2023/01/08 07:41:35;;;;;;;23.75;11.10;;;;;;;12.18;46.84;100431.91;3162880;28;20062;-70
2023/01/08 07:43:06;;;;;;;19.15;10.23;;;;;;;12.43;46.37;100435.19;3148499;28;20513;-68
2023/01/08 07:44:38;;;;;;;23.88;10.57;;;;;;;12.68;45.70;100428.91;3152849;28;20433;-71
2023/01/08 07:46:11;;;;;;;19.90;10.18;;;;;;;12.78;44.95;100411.91;3156007;28;20469;-71
2023/01/08 07:47:43;;;;;;;22.13;11.60;;;;;;;13.08;44.38;100427.13;3158326;28;20096;-72
2023/01/08 07:49:15;;;;;;;23.75;10.63;;;;;;;13.39;44.12;100432.66;3162097;28;20406;-70
2023/01/08 07:50:47;;;;;;;23.73;11.23;;;;;;;13.62;43.65;100439.44;3158939;28;20564;-73
2023/01/08 07:52:19;;;;;;;24.58;11.55;;;;;;;13.83;43.14;100440.16;3155109;28;20125;-73
2023/01/08 07:53:51;;;;;;;27.08;11.85;;;;;;;14.06;42.71;100433.81;3154394;28;20043;-70
2023/01/08 07:55:23;;;;;;;21.05;10.80;;;;;;;14.29;42.56;100435.28;3158631;28;20044;-70
2023/01/08 07:56:55;;;;;;;26.60;12.23;;;;;;;14.53;41.96;100435.00;3154635;28;20062;-71
2023/01/08 07:58:27;;;;;;;23.60;11.55;;;;;;;14.70;41.33;100428.88;3157051;28;20504;-71
2023/01/08 07:59:59;;;;;;;24.63;11.35;;;;;;;14.85;41.07;100428.09;3161753;28;20044;-70
2023/01/08 08:01:32;;;;;;;25.25;11.07;;;;;;;15.05;40.80;100431.41;3157129;28;20066;-73
2023/01/08 08:03:05;;;;;;;26.67;11.57;;;;;;;15.25;40.32;100434.63;3167781;28;20094;-69
2023/01/08 08:04:38;;;;;;;25.77;10.38;;;;;;;15.41;40.11;100420.66;3166836;28;20142;-70